createdAt,value
2023-05-13T00:00:07.735Z,14.70
2023-05-13T00:02:35.065Z,14.70
2023-05-13T00:05:02.749Z,14.60
2023-05-13T00:07:29.899Z,14.60
2023-05-13T00:09:57.017Z,14.50
2023-05-13T00:12:24.139Z,14.50
2023-05-13T00:14:51.241Z,14.50
2023-05-13T00:17:18.471Z,14.40
2023-05-13T00:19:45.646Z,14.50
2023-05-13T00:22:12.723Z,14.50
2023-05-13T00:24:39.835Z,14.40
2023-05-13T00:27:07.071Z,14.40
2023-05-13T00:29:35.578Z,14.40
2023-05-13T00:32:05.164Z,14.20
2023-05-13T00:34:34.554Z,14.20
2023-05-13T00:37:01.680Z,14.20
2023-05-13T00:39:29.069Z,14.10
2023-05-13T00:41:56.475Z,14.10
2023-05-13T00:44:23.520Z,14.00
2023-05-13T00:46:50.601Z,14.10
2023-05-13T00:49:17.625Z,14.00
2023-05-13T00:51:44.663Z,14.00
2023-05-13T00:54:11.731Z,14.00
2023-05-13T00:56:39.341Z,13.90
2023-05-13T00:59:06.367Z,13.90
2023-05-13T01:02:10.914Z,13.80
2023-05-13T01:04:37.839Z,13.90
2023-05-13T01:07:19.971Z,13.80
2023-05-13T01:10:08.890Z,13.80
2023-05-13T01:12:44.076Z,13.70
2023-05-13T01:15:12.038Z,13.80
2023-05-13T01:17:51.137Z,13.70
2023-05-13T01:20:22.237Z,13.60
2023-05-13T01:22:49.736Z,13.60
2023-05-13T01:25:16.786Z,13.60
2023-05-13T01:27:43.776Z,13.50
2023-05-13T01:30:11.528Z,13.50
2023-05-13T01:32:38.660Z,13.50
2023-05-13T01:35:06.189Z,13.50
2023-05-13T01:37:33.409Z,13.30
2023-05-13T01:40:00.467Z,13.40
2023-05-13T01:42:29.954Z,13.40
2023-05-13T01:44:57.637Z,13.30
2023-05-13T01:47:24.659Z,13.20
2023-05-13T01:49:51.684Z,13.30
2023-05-13T01:52:18.878Z,13.20
2023-05-13T01:54:45.918Z,13.20
2023-05-13T01:57:12.905Z,13.00
2023-05-13T01:59:39.904Z,13.00
2023-05-13T02:02:07.005Z,13.00
2023-05-13T02:04:37.085Z,13.10
2023-05-13T02:07:04.561Z,13.10
2023-05-13T02:09:31.636Z,13.00
2023-05-13T02:11:58.744Z,13.00
2023-05-13T02:14:26.268Z,12.90
2023-05-13T02:16:53.448Z,12.90
2023-05-13T02:19:20.515Z,13.00
2023-05-13T02:21:47.585Z,12.90
2023-05-13T02:24:14.565Z,13.00
2023-05-13T02:26:45.275Z,12.80
2023-05-13T02:29:12.282Z,12.90
2023-05-13T02:31:39.360Z,12.90
2023-05-13T02:34:06.663Z,12.90
2023-05-13T02:36:34.711Z,12.90
2023-05-13T02:39:01.727Z,12.80
2023-05-13T02:41:28.911Z,12.80
2023-05-13T02:43:55.925Z,12.80
2023-05-13T02:46:22.996Z,12.70
2023-05-13T02:48:50.026Z,12.70
2023-05-13T02:51:17.013Z,12.70
2023-05-13T02:53:44.004Z,12.60
2023-05-13T02:56:11.069Z,12.60
2023-05-13T02:58:38.234Z,12.60
2023-05-13T03:01:05.256Z,12.60
2023-05-13T03:03:34.929Z,12.50
2023-05-13T03:06:02.190Z,12.50
2023-05-13T03:08:29.596Z,12.40
2023-05-13T03:10:56.602Z,12.50
2023-05-13T03:13:23.626Z,12.40
2023-05-13T03:15:50.810Z,12.40
2023-05-13T03:18:17.840Z,12.50
2023-05-13T03:20:44.905Z,12.40
2023-05-13T03:23:11.898Z,12.30
2023-05-13T03:25:38.970Z,12.20
2023-05-13T03:28:06.346Z,12.20
2023-05-13T03:30:34.528Z,12.30
2023-05-13T03:33:01.661Z,12.30
2023-05-13T03:35:28.782Z,12.30
2023-05-13T03:37:55.896Z,12.30
2023-05-13T03:40:23.031Z,12.30
2023-05-13T03:42:50.196Z,12.20
2023-05-13T05:04:10.484Z,12.10
2023-05-13T05:06:40.666Z,12.10
2023-05-13T05:09:08.877Z,12.10
2023-05-13T05:11:35.924Z,12.20
2023-05-13T05:14:03.015Z,12.20
2023-05-13T05:16:30.025Z,12.30
2023-05-13T05:18:57.138Z,12.30
2023-05-13T05:21:24.368Z,12.30
2023-05-13T05:23:51.406Z,12.40
2023-05-13T05:26:18.551Z,12.50
2023-05-13T05:28:45.902Z,12.40
2023-05-13T05:31:13.036Z,12.40
2023-05-13T05:33:40.551Z,12.50
2023-05-13T05:36:10.880Z,12.60
2023-05-13T05:38:38.609Z,12.60
2023-05-13T05:41:05.609Z,12.60
2023-05-13T05:43:32.646Z,12.60
2023-05-13T05:45:59.745Z,12.70
2023-05-13T05:48:26.908Z,12.70
2023-05-13T05:50:55.688Z,12.80
2023-05-13T05:53:22.775Z,12.80
2023-05-13T05:55:51.663Z,12.80
2023-05-13T05:58:20.029Z,12.80
2023-05-13T06:00:47.227Z,12.80
2023-05-13T06:03:14.364Z,12.90
2023-05-13T06:05:41.884Z,13.00
2023-05-13T06:08:08.886Z,13.10
2023-05-13T06:10:35.882Z,13.20
2023-05-13T06:13:02.960Z,13.30
2023-05-13T06:15:30.190Z,13.30
2023-05-13T06:17:57.907Z,13.50
2023-05-13T06:20:25.015Z,13.80
2023-05-13T06:22:52.115Z,14.00
2023-05-13T06:25:19.266Z,14.40
2023-05-13T06:27:46.389Z,14.60
2023-05-13T06:30:13.713Z,14.90
2023-05-13T06:32:47.256Z,15.10
2023-05-13T06:35:21.432Z,15.50
2023-05-13T06:37:48.503Z,15.80
2023-05-13T06:40:15.645Z,15.80
2023-05-13T06:42:42.644Z,16.00
2023-05-13T06:45:10.094Z,16.20
2023-05-13T06:47:37.236Z,16.30
2023-05-13T06:50:04.595Z,16.50
2023-05-13T06:52:31.853Z,16.30
2023-05-13T06:55:00.139Z,16.70
2023-05-13T06:57:38.838Z,16.80
2023-05-13T07:00:09.513Z,17.10
2023-05-13T07:02:36.937Z,17.30
2023-05-13T07:05:04.125Z,17.50
2023-05-13T07:07:31.303Z,17.50
2023-05-13T07:09:58.346Z,17.70
2023-05-13T07:12:25.417Z,17.60
2023-05-13T07:14:52.503Z,17.40
2023-05-13T07:17:19.593Z,17.40
2023-05-13T07:19:47.638Z,17.60
2023-05-13T07:22:14.744Z,17.70
2023-05-13T07:24:42.003Z,17.50
2023-05-13T07:27:09.476Z,17.50
2023-05-13T07:29:36.748Z,17.40
2023-05-13T07:32:05.485Z,17.20
2023-05-13T07:34:32.799Z,17.40
2023-05-13T07:36:59.907Z,17.30
2023-05-13T07:39:27.540Z,17.40
2023-05-13T07:41:55.236Z,17.30
2023-05-13T07:44:22.285Z,17.20
2023-05-13T07:46:49.609Z,17.30
2023-05-13T07:49:16.665Z,17.50
2023-05-13T07:51:43.684Z,17.50
2023-05-13T07:54:10.788Z,17.30
2023-05-13T07:56:41.170Z,17.40
2023-05-13T07:59:09.640Z,17.50
2023-05-13T08:01:36.761Z,17.20
2023-05-13T08:04:04.022Z,17.20
2023-05-13T08:06:32.780Z,17.20
2023-05-13T08:09:00.189Z,17.30
2023-05-13T08:11:27.828Z,17.30
2023-05-13T08:13:54.813Z,17.40
2023-05-13T08:16:21.872Z,17.40
2023-05-13T08:18:48.940Z,17.40
2023-05-13T08:21:16.046Z,17.60
2023-05-13T08:23:45.837Z,17.50
2023-05-13T08:26:13.713Z,17.50
2023-05-13T08:28:42.306Z,17.40
2023-05-13T08:31:12.494Z,17.40
2023-05-13T08:33:41.930Z,17.60
2023-05-13T08:36:09.586Z,17.80
2023-05-13T08:38:36.710Z,17.70
2023-05-13T08:41:07.004Z,17.70
2023-05-13T08:43:34.530Z,17.80
2023-05-13T08:46:04.327Z,17.60
2023-05-13T08:48:32.096Z,17.70
2023-05-13T08:50:59.152Z,17.80
2023-05-13T08:53:26.957Z,17.80
2023-05-13T08:55:54.421Z,17.70
2023-05-13T08:58:21.625Z,17.80
2023-05-13T09:00:54.216Z,17.80
2023-05-13T09:03:21.885Z,17.80
2023-05-13T09:05:49.070Z,17.90
2023-05-13T09:08:16.072Z,18.00
2023-05-13T09:10:43.101Z,17.80
2023-05-13T09:13:12.577Z,17.80
2023-05-13T09:15:42.164Z,18.00
2023-05-13T09:18:09.495Z,18.00
2023-05-13T09:20:37.013Z,18.10
2023-05-13T09:23:05.886Z,18.10
2023-05-13T09:25:33.115Z,18.20
2023-05-13T09:28:01.816Z,18.30
2023-05-13T09:30:31.079Z,18.40
2023-05-13T09:33:22.083Z,18.50
2023-05-13T09:35:50.787Z,18.60
2023-05-13T09:38:18.710Z,18.70
2023-05-13T09:40:53.244Z,18.70
2023-05-13T09:43:21.648Z,18.80
2023-05-13T09:45:52.048Z,18.80
2023-05-13T09:48:19.565Z,18.90
2023-05-13T09:50:50.119Z,19.10
2023-05-13T09:53:17.560Z,18.90
2023-05-13T09:55:49.451Z,19.10
2023-05-13T09:58:16.562Z,19.30
2023-05-13T10:00:44.073Z,19.30
2023-05-13T10:03:12.169Z,19.40
2023-05-13T10:05:41.066Z,19.40
2023-05-13T10:08:14.425Z,19.50
2023-05-13T10:10:42.343Z,19.70
2023-05-13T10:13:11.098Z,19.70
2023-05-13T10:15:43.314Z,19.70
2023-05-13T10:18:10.393Z,19.90
2023-05-13T10:20:38.180Z,20.00
2023-05-13T10:23:05.381Z,20.00
2023-05-13T10:25:32.431Z,20.00
2023-05-13T10:27:59.483Z,20.00
2023-05-13T10:30:27.715Z,20.10
2023-05-13T10:32:54.861Z,20.20
2023-05-13T10:35:21.922Z,20.30
2023-05-13T10:38:22.788Z,20.40
2023-05-13T10:41:09.887Z,20.30
2023-05-13T10:43:37.864Z,20.70
2023-05-13T10:46:09.044Z,20.60
2023-05-13T10:48:43.301Z,20.60
2023-05-13T10:51:14.068Z,20.50
2023-05-13T10:53:54.936Z,20.90
2023-05-13T10:56:23.248Z,21.00
2023-05-13T10:59:05.815Z,21.00
2023-05-13T11:01:43.296Z,21.00
2023-05-13T11:04:19.516Z,21.20
2023-05-13T11:06:48.702Z,21.10
2023-05-13T11:09:23.083Z,21.10
2023-05-13T11:11:54.468Z,21.30
2023-05-13T11:14:22.744Z,21.20
2023-05-13T11:17:02.404Z,21.40
2023-05-13T11:19:36.602Z,21.40
2023-05-13T11:22:14.926Z,21.20
2023-05-13T11:24:44.454Z,21.30
2023-05-13T11:27:15.482Z,21.60
2023-05-13T11:29:56.272Z,21.70
2023-05-13T11:32:54.339Z,21.80
2023-05-13T11:35:29.360Z,21.90
2023-05-13T11:37:59.854Z,21.90
2023-05-13T11:40:29.484Z,21.80
2023-05-13T11:42:56.529Z,21.90
2023-05-13T11:45:25.046Z,21.70
2023-05-13T11:47:53.075Z,22.00
2023-05-13T11:50:20.550Z,22.10
2023-05-13T11:52:55.302Z,22.10
2023-05-13T11:55:48.836Z,22.30
2023-05-13T11:58:16.597Z,22.40
2023-05-13T12:00:46.534Z,22.70
2023-05-13T12:03:16.404Z,22.30
2023-05-13T12:05:47.076Z,22.30
2023-05-13T12:08:14.169Z,22.50
2023-05-13T12:10:45.151Z,22.30
2023-05-13T12:13:12.567Z,22.20
2023-05-13T12:15:39.789Z,22.40
2023-05-13T12:18:08.405Z,22.60
2023-05-13T12:20:35.904Z,22.70
2023-05-13T12:23:04.379Z,22.80
2023-05-13T12:25:51.511Z,22.90
2023-05-13T12:28:24.373Z,22.70
2023-05-13T12:30:56.761Z,22.70
2023-05-13T12:33:44.641Z,22.90
2023-05-13T12:36:35.850Z,22.90
2023-05-13T12:39:11.184Z,22.80
2023-05-13T12:41:41.085Z,22.90
2023-05-13T12:44:14.805Z,23.00
2023-05-13T12:46:51.942Z,22.90
2023-05-13T12:49:19.196Z,23.00
2023-05-13T12:51:46.265Z,22.90
2023-05-13T12:54:13.604Z,22.80
2023-05-13T12:56:40.899Z,22.50
2023-05-13T12:59:09.075Z,22.60
2023-05-13T13:01:37.338Z,22.60
2023-05-13T13:04:04.750Z,22.70
2023-05-13T13:06:32.709Z,23.00
2023-05-13T13:08:59.927Z,23.00
2023-05-13T13:11:26.997Z,22.90
2023-05-13T13:13:54.065Z,23.20
2023-05-13T13:16:22.035Z,23.00
2023-05-13T13:18:52.376Z,22.80
2023-05-13T13:21:20.373Z,23.00
2023-05-13T13:23:47.475Z,23.00
2023-05-13T13:26:14.567Z,23.00
2023-05-13T13:28:41.705Z,22.90
2023-05-13T13:31:09.238Z,23.00
2023-05-13T13:33:36.642Z,23.00
2023-05-13T13:36:04.019Z,23.30
2023-05-13T13:38:31.115Z,23.50
2023-05-13T13:40:58.209Z,23.30
2023-05-13T13:43:25.409Z,23.00
2023-05-13T13:45:53.134Z,22.70
2023-05-13T13:48:21.095Z,22.70
2023-05-13T13:50:48.908Z,22.90
2023-05-13T13:53:17.650Z,23.10
2023-05-13T13:55:44.820Z,22.90
2023-05-13T13:58:11.895Z,22.80
2023-05-13T14:00:39.085Z,23.10
2023-05-13T14:03:06.364Z,23.00
2023-05-13T14:05:33.722Z,23.00
2023-05-13T14:08:00.965Z,22.80
2023-05-13T14:10:28.060Z,22.80
2023-05-13T14:12:55.161Z,22.90
2023-05-13T14:15:22.356Z,23.10
2023-05-13T14:17:49.492Z,23.00
2023-05-13T14:20:16.625Z,22.80
2023-05-13T14:22:43.730Z,22.90
2023-05-13T14:25:10.903Z,22.80
2023-05-13T14:27:38.488Z,23.10
2023-05-13T14:30:07.126Z,23.00
2023-05-13T14:32:34.910Z,22.90
2023-05-13T14:35:02.018Z,23.00
2023-05-13T14:37:29.153Z,23.00
2023-05-13T14:39:56.577Z,22.80
2023-05-13T14:42:23.708Z,22.60
2023-05-13T14:44:50.799Z,22.70
2023-05-13T14:47:17.921Z,23.00
2023-05-13T14:49:45.096Z,23.00
2023-05-13T14:52:12.278Z,22.80
2023-05-13T14:54:39.360Z,22.70
2023-05-13T14:57:08.187Z,22.70
2023-05-13T14:59:35.349Z,22.70
2023-05-13T15:02:03.650Z,22.80
2023-05-13T15:04:31.038Z,22.80
2023-05-13T15:06:58.421Z,22.60
2023-05-13T15:09:25.530Z,22.50
2023-05-13T15:11:52.611Z,22.60
2023-05-13T15:14:21.186Z,22.60
2023-05-13T15:16:48.278Z,22.40
2023-05-13T15:19:16.468Z,22.40
2023-05-13T15:21:43.563Z,22.50
2023-05-13T15:24:10.713Z,22.40
2023-05-13T15:26:38.295Z,22.40
2023-05-13T15:29:05.453Z,22.40
2023-05-13T15:31:32.645Z,22.60
2023-05-13T15:33:59.945Z,22.80
2023-05-13T15:36:27.027Z,22.60
2023-05-13T15:38:54.113Z,22.50
2023-05-13T15:41:21.888Z,22.60
2023-05-13T15:43:49.008Z,22.50
2023-05-13T15:46:16.337Z,22.50
2023-05-13T15:48:43.462Z,22.50
2023-05-13T15:51:10.689Z,22.30
2023-05-13T15:53:38.343Z,22.20
2023-05-13T15:56:05.701Z,22.10
2023-05-13T15:58:32.827Z,22.20
2023-05-13T16:00:59.942Z,22.30
2023-05-13T16:03:27.073Z,22.20
2023-05-13T16:05:55.490Z,22.20
2023-05-13T16:08:22.582Z,22.30
2023-05-13T16:10:49.772Z,22.10
2023-05-13T16:13:16.865Z,22.00
2023-05-13T16:15:44.041Z,21.80
2023-05-13T16:18:11.191Z,21.60
2023-05-13T16:20:38.606Z,21.50
2023-05-13T16:23:05.815Z,21.50
2023-05-13T16:25:32.933Z,21.60
2023-05-13T16:28:00.199Z,21.60
2023-05-13T16:30:27.722Z,21.60
2023-05-13T16:32:54.968Z,21.50
2023-05-13T16:35:22.732Z,21.50
2023-05-13T16:37:50.436Z,21.40
2023-05-13T16:40:17.617Z,21.50
2023-05-13T16:42:44.748Z,21.50
2023-05-13T16:45:11.941Z,21.40
2023-05-13T16:47:39.182Z,21.30
2023-05-13T16:50:08.642Z,21.40
2023-05-13T16:52:35.807Z,21.40
2023-05-13T16:55:03.242Z,21.30
2023-05-13T16:57:30.498Z,21.30
2023-05-13T16:59:57.626Z,21.20
2023-05-13T17:02:24.854Z,21.20
2023-05-13T17:04:52.052Z,21.10
2023-05-13T17:07:20.054Z,21.10
2023-05-13T17:09:47.126Z,21.10
2023-05-13T17:12:14.303Z,21.10
2023-05-13T17:14:41.591Z,21.00
2023-05-13T17:17:09.045Z,21.00
2023-05-13T17:19:36.413Z,21.00
2023-05-13T17:22:03.519Z,20.90
2023-05-13T17:24:30.714Z,20.90
2023-05-13T17:26:57.863Z,20.90
2023-05-13T17:29:25.995Z,20.80
2023-05-13T17:31:53.265Z,20.80
2023-05-13T17:34:21.056Z,20.70
2023-05-13T17:36:50.131Z,20.60
2023-05-13T17:39:17.448Z,20.50
2023-05-13T17:41:44.527Z,20.50
2023-05-13T17:44:11.663Z,20.60
2023-05-13T17:46:38.933Z,20.60
2023-05-13T17:49:06.088Z,20.50
2023-05-13T17:51:33.285Z,20.40
2023-05-13T17:54:00.384Z,20.30
2023-05-13T17:56:27.458Z,20.30
2023-05-13T17:58:54.525Z,20.20
2023-05-13T18:01:22.012Z,20.20
2023-05-13T18:03:49.167Z,20.10
2023-05-13T18:06:16.487Z,20.10
2023-05-13T18:08:43.640Z,20.10
2023-05-13T18:11:10.956Z,20.00
2023-05-13T18:13:38.379Z,20.00
2023-05-13T18:16:06.447Z,20.00
2023-05-13T18:18:33.656Z,19.90
2023-05-13T18:21:00.921Z,19.90
2023-05-13T18:23:27.997Z,19.70
2023-05-13T18:25:56.368Z,19.60
2023-05-13T18:28:23.874Z,19.60
2023-05-13T18:30:51.059Z,19.60
2023-05-13T18:33:20.765Z,19.60
2023-05-13T18:35:47.936Z,19.50
2023-05-13T18:38:15.129Z,19.40
2023-05-13T18:40:42.253Z,19.40
2023-05-13T18:43:09.388Z,19.30
2023-05-13T18:45:36.926Z,19.20
2023-05-13T18:48:04.678Z,19.20
2023-05-13T18:50:31.963Z,19.10
2023-05-13T18:52:59.029Z,18.90
2023-05-13T18:55:26.181Z,18.80
2023-05-13T18:57:53.287Z,18.70
2023-05-13T19:00:20.628Z,18.70
2023-05-13T19:02:48.008Z,18.60
2023-05-13T19:05:15.274Z,18.60
2023-05-13T19:07:42.376Z,18.50
2023-05-13T19:10:09.585Z,18.30
2023-05-13T19:12:36.877Z,18.30
2023-05-13T19:15:04.237Z,18.30
2023-05-13T19:17:31.344Z,18.20
2023-05-13T19:20:00.526Z,18.10
2023-05-13T19:22:27.621Z,17.90
2023-05-13T19:24:54.746Z,17.80
2023-05-13T19:27:22.269Z,17.80
2023-05-13T19:29:49.579Z,17.70
2023-05-13T19:32:16.863Z,17.70
2023-05-13T19:34:43.896Z,17.70
2023-05-13T19:37:11.009Z,17.70
2023-05-13T19:39:38.485Z,17.60
2023-05-13T19:42:05.664Z,17.50
2023-05-13T19:44:34.169Z,17.50
2023-05-13T19:47:01.415Z,17.30
2023-05-13T19:49:28.638Z,17.20
2023-05-13T19:51:55.712Z,17.20
2023-05-13T19:54:22.802Z,17.10
2023-05-13T19:56:49.958Z,17.10
2023-05-13T19:59:16.926Z,17.00
2023-05-13T20:01:43.923Z,16.90
2023-05-13T20:04:11.036Z,16.90
2023-05-13T20:06:38.334Z,16.90
2023-05-13T20:09:05.976Z,16.90
2023-05-13T20:11:33.037Z,16.70
2023-05-13T20:14:00.159Z,16.70
2023-05-13T20:16:27.188Z,16.60
2023-05-13T20:18:54.270Z,16.50
2023-05-13T20:21:21.322Z,16.40
2023-05-13T20:23:48.348Z,16.40
2023-05-13T20:26:15.387Z,16.40
2023-05-13T20:28:42.454Z,16.40
2023-05-13T20:31:09.576Z,16.30
2023-05-13T20:33:37.072Z,16.30
2023-05-13T20:36:06.598Z,16.30
2023-05-13T20:38:33.801Z,16.30
2023-05-13T20:41:01.049Z,16.30
2023-05-13T20:43:28.136Z,16.20
2023-05-13T20:45:55.269Z,16.30
2023-05-13T20:48:22.860Z,16.30
2023-05-13T20:50:49.893Z,16.20
2023-05-13T20:53:16.974Z,16.20
2023-05-13T20:55:44.071Z,16.00
2023-05-13T20:58:12.272Z,16.00
2023-05-13T21:00:39.280Z,15.90
2023-05-13T21:03:06.840Z,15.80
2023-05-13T21:05:34.047Z,15.90
2023-05-13T21:08:01.429Z,15.90
2023-05-13T21:10:28.531Z,15.80
2023-05-13T21:12:55.624Z,15.70
2023-05-13T21:15:22.715Z,15.70
2023-05-13T21:17:49.873Z,15.70
2023-05-13T21:20:17.124Z,15.60
2023-05-13T21:22:44.380Z,15.60
2023-05-13T21:25:11.669Z,15.50
2023-05-13T21:27:39.291Z,15.40
2023-05-13T21:30:07.866Z,15.30
2023-05-13T21:32:35.075Z,15.30
2023-05-13T21:35:02.188Z,15.30
2023-05-13T21:37:29.332Z,15.20
2023-05-13T21:39:56.407Z,15.10
2023-05-13T21:42:23.546Z,15.00
2023-05-13T21:44:50.698Z,15.00
2023-05-13T21:47:18.082Z,15.00
2023-05-13T21:49:45.188Z,15.00
2023-05-13T21:52:12.423Z,15.00
2023-05-13T21:54:40.017Z,14.90
2023-05-13T21:57:11.855Z,15.00
2023-05-13T21:59:39.012Z,14.80
2023-05-13T22:02:06.791Z,14.70
2023-05-13T22:04:34.022Z,14.80
2023-05-13T22:07:02.334Z,14.80
2023-05-13T22:09:29.490Z,14.70
2023-05-13T22:11:56.594Z,14.70
2023-05-13T22:14:23.794Z,14.70
2023-05-13T22:17:07.188Z,14.60
2023-05-13T22:19:36.318Z,14.60
2023-05-13T22:22:03.750Z,14.60
2023-05-13T22:24:31.500Z,14.60
2023-05-13T22:26:58.941Z,14.60
2023-05-13T22:29:26.330Z,14.60
2023-05-13T22:31:53.494Z,14.50
2023-05-13T22:34:20.579Z,14.40
2023-05-13T22:36:47.603Z,14.40
2023-05-13T22:39:16.050Z,14.20
2023-05-13T22:41:43.341Z,14.20
2023-05-13T22:44:11.079Z,14.10
2023-05-13T22:46:38.848Z,14.00
2023-05-13T22:49:09.421Z,14.00
2023-05-13T22:51:38.955Z,14.00
2023-05-13T22:54:07.080Z,13.90
2023-05-13T22:56:34.113Z,13.80
2023-05-13T22:59:01.109Z,13.80
2023-05-13T23:01:28.250Z,13.70
2023-05-13T23:03:55.325Z,13.80
2023-05-13T23:06:22.348Z,13.80
2023-05-13T23:08:49.350Z,13.80
2023-05-13T23:11:16.369Z,13.70
2023-05-13T23:13:43.415Z,13.80
2023-05-13T23:16:10.555Z,13.80
2023-05-13T23:18:38.717Z,13.80
2023-05-13T23:21:05.935Z,13.80
2023-05-13T23:23:33.006Z,13.70
2023-05-13T23:26:00.032Z,13.70
2023-05-13T23:28:27.033Z,13.70
2023-05-13T23:30:56.844Z,13.70
2023-05-13T23:33:23.862Z,13.70
2023-05-13T23:35:54.480Z,13.70
2023-05-13T23:38:21.630Z,13.60
2023-05-13T23:40:48.664Z,13.70
2023-05-13T23:43:15.652Z,13.70
2023-05-13T23:45:42.719Z,13.70
2023-05-13T23:48:09.803Z,13.70
2023-05-13T23:50:36.969Z,13.70
2023-05-13T23:53:04.032Z,13.70
2023-05-13T23:55:31.067Z,13.70
2023-05-13T23:57:58.083Z,13.70
